• Join FlightAware (Why Join?)
  • Login
  • US Flag 
01:35PM EDT


 

Airport Tracker/Info


-or-


 

Live Flight TrackerFlight Track Log ✈ N789XJ ✈ 24-Jun-2013 ✈ KBED - KIAD

Flight Track Log - Related Links

Times and Time Zones

All times are in EDT time to prevent confusion due to time zone crossing. See the N789XJ flight status page for this flight to view local times or setup timezone preferences in your user account.

Time Position Orientation Groundspeed Altitude Reporting Facility
EDT Latitude Longitude Course Direction KTS MPH feet Rate Location/Type
09:41AM 42.4667 -71.3167 236° Southwest 185 213 1,300  Level KA90
09:42AM 42.4500 -71.3500 236° Southwest 232 267 2,300 2,580 Climbing KA90
09:43AM 42.3756 -71.4844 233° Southwest 272 313 7,300 2,940 Climbing Boston Center
09:44AM 42.3617 -71.5858 260° West 262 302 10,300 2,700 Climbing Boston Center
09:45AM 42.3417 -71.6844 255° West 295 339 12,700 2,580 Climbing Boston Center
09:46AM 42.3069 -71.8142 250° West 330 380 15,500 2,520 Climbing Boston Center
09:47AM 42.2742 -71.9378 250° West 353 406 17,800 2,340 Climbing Boston Center
09:48AM 42.2392 -72.0644 250° West 353 406 20,200 2,340 Climbing Boston Center
09:49AM 42.2042 -72.1906 249° West 358 412 22,500 2,100 Climbing Boston Center
09:50AM 42.1669 -72.3169 248° West 358 412 24,500 1,800 Climbing Boston Center
09:51AM 42.1294 -72.4486 249° West 368 423 26,100 1,500 Climbing Boston Center
09:52AM 42.0897 -72.5883 249° West 386 444 27,600 1,320 Climbing Boston Center
09:53AM 42.0603 -72.7003 251° West 396 456 28,800 1,500 Climbing Boston Center
09:54AM 42.0139 -72.8733 250° West 410 472 30,600 1,560 Climbing Boston Center
09:55AM 41.9592 -73.0292 245° Southwest 432 497 32,000 660 Climbing Boston Center
09:56AM 41.8936 -73.1736 239° Southwest 444 511 32,000  Level Boston Center
09:57AM 41.8114 -73.3147 232° Southwest 472 543 32,000  Level Boston Center
10:00AM 41.6256 -73.5908 228° Southwest 507 583 32,000  Level New York Center
10:01AM 41.5350 -73.7172 226° Southwest 496 571 32,000  Level New York Center
10:02AM 41.4400 -73.8514 227° Southwest 496 571 32,000  Level New York Center
10:03AM 41.3469 -73.9825 227° Southwest 496 571 32,000  Level New York Center
10:04AM 41.2539 -74.1131 227° Southwest 489 563 32,000  Level New York Center
10:05AM 41.1475 -74.2567 225° Southwest 489 563 32,000 -1,380 Level New York Center
10:07AM 40.9653 -74.4972 225° Southwest 474 545 28,000 -1,380 Descending New York Center
10:08AM 40.8739 -74.6158 224° Southwest 468 539 28,000  Level New York Center
10:09AM 40.8047 -74.7544 237° Southwest 463 533 28,000  Level New York Center
10:10AM 40.7394 -74.9011 240° Southwest 463 533 28,000  Level New York Center
10:11AM 40.6758 -75.0478 240° Southwest 463 533 28,000  Level New York Center
10:12AM 40.6147 -75.1781 238° Southwest 468 539 28,000  Level New York Center
10:13AM 40.5458 -75.3431 241° Southwest 474 545 28,000 -840 Level New York Center
10:14AM 40.4911 -75.4647 239° Southwest 450 518 26,400 -2,280 Descending New York Center
10:15AM 40.4225 -75.6183 240° Southwest 444 511 23,500 -2,820 Descending New York Center
10:16AM 40.3603 -75.7583 240° Southwest 451 519 20,800 -1,800 Descending New York Center
10:17AM 40.3094 -75.8744 240° Southwest 437 503 20,000 -420 Descending New York Center
10:18AM 40.2472 -76.0086 239° Southwest 430 495 20,000  Level New York Center
10:19AM 40.1894 -76.1375 240° Southwest 419 482 20,000 -480 Level New York Center
10:20AM 40.1225 -76.2789 238° Southwest 419 482 19,100 -1,320 Descending New York Center
10:21AM 40.0711 -76.3969 240° Southwest 419 482 17,400 -2,040 Descending New York Center
10:22AM 40.0058 -76.5381 239° Southwest 419 482 15,100 -780 Descending New York Center
10:24AM 39.8833 -76.7833 237° Southwest 411 473 15,000 -360 Descending Potomac TRACON
10:25AM 39.8333 -76.9167 244° Southwest 410 472 14,100 -1,440 Descending Potomac TRACON
10:26AM 39.7667 -77.0333 233° Southwest 403 464 12,100 -1,980 Descending Potomac TRACON
10:27AM 39.7167 -77.1500 241° Southwest 385 443 10,200 -1,380 Descending Potomac TRACON
10:28AM 39.6500 -77.2500 229° Southwest 294 338 9,400 -600 Descending Potomac TRACON
10:29AM 39.5667 -77.2833 197° South 271 312 9,000 -420 Descending Potomac TRACON
10:30AM 39.5000 -77.3167 201° Southwest 274 315 8,600 -1,020 Descending Potomac TRACON
10:31AM 39.4333 -77.3500 201° Southwest 273 314 7,000 -1,080 Descending Potomac TRACON
10:32AM 39.3667 -77.3833 201° Southwest 269 310 6,500 -1,200 Descending Potomac TRACON
10:33AM 39.3000 -77.4167 201° Southwest 270 311 4,600 -1,800 Descending Potomac TRACON
10:34AM 39.2167 -77.4500 197° South 269 310 3,000 -840 Descending Potomac TRACON
10:35AM 39.1500 -77.4667 191° South 251 289 3,000 -300 Level Potomac TRACON
10:36AM 39.0833 -77.4667 180° South 221 254 2,500 -780 Descending Potomac TRACON
10:37AM 39.0333 -77.4667 180° South 213 245 1,500 -1,020 Descending Potomac TRACON
10:38AM 38.9833 -77.4667 180° South 157 181 600 -1,020 Descending Potomac TRACON
10:40AM 38.9474 -77.4599 165° South  Level Estimated
10:47AM 38.9474 -77.4599 165° South  Level Estimated
10:48AM 38.9474 -77.4599 165° South  Level Estimated
10:49AM 38.9474 -77.4599 165° South  Level Estimated